KDLH/DLH METAR and TAF weather

Enter ICAO airport designator
Station Type Date Time Source
KDLH METAR 2018/10/21 04:55 UTC NOAA

KDLH 210455Z 28004KT 10SM CLR M02/M07 A3025 RMK AO2 SLP267 T10171067


Station Type Date Time Source
KDLH Decoded METAR 2018/10/21 04:55 UTC NOAA

Duluth, Duluth International Airport, MN, United States (KDLH) 46-50-34N 092-13-34W 435M
Oct 21, 2018 - 12:55 AM EDT / 2018.10.21 0455 UTC
Wind: from the W (280 degrees) at 5 MPH (4 KT):0
Visibility: 10 mile(s):0
Sky conditions: clear
Temperature: 28.9 F (-1.7 C)
Windchill: 23 F (-5 C):1
Dew Point: 19.9 F (-6.7 C)
Relative Humidity: 68%
Pressure (altimeter): 30.25 in. Hg (1024 hPa)
ob: KDLH 210455Z 28004KT 10SM CLR M02/M07 A3025 RMK AO2 SLP267 T10171067
cycle: 5

Station Type Date Time Source
KDLH TAF 2018/10/21 06:22 UTC NOAA

TAF KDLH 210520Z 2106/2206 VRB03KT P6SM BKN150
FM211400 21011KT P6SM SCT100
FM211800 24011KT P6SM SCT120
FM212200 27008KT P6SM SKC


Example: see airport list